Time;durP1;ratioP1;P1;durP2;ratioP2;P2;SDS_P1;SDS_P2;PMS_P1;PMS_P2;Temp;Humidity;BMP_temperature;BMP_pressure;BME280_temperature;BME280_humidity;BME280_pressure;Samples;Min_cycle;Max_cycle;Signal;HPM_P1;HPM_P2
2022/10/07 00:02:18;;;;;;;0.10;0.10;;;;;;;12.66;56.21;99174.91;8479925;28;20230;-75
2022/10/07 00:06:22;;;;;;;0.10;0.10;;;;;;;12.79;55.92;99177.94;8479382;28;20297;-73
2022/10/07 00:10:26;;;;;;;0.00;0.00;;;;;;;12.68;56.37;99186.13;8479627;28;20255;-74
2022/10/07 00:14:29;;;;;;;0.10;0.10;;;;;;;12.58;56.59;99182.13;8480172;28;20290;-73
2022/10/07 00:18:32;;;;;;;0.10;0.10;;;;;;;12.68;56.43;99171.38;8480826;28;20265;-73
2022/10/07 00:22:34;;;;;;;0.10;0.10;;;;;;;12.71;56.20;99168.66;8480927;28;20237;-73
2022/10/07 00:26:39;;;;;;;0.10;0.10;;;;;;;12.73;56.28;99166.00;8480564;28;20249;-74
2022/10/07 00:30:41;;;;;;;0.10;0.10;;;;;;;12.65;56.45;99165.41;8480639;28;20306;-74
2022/10/07 00:34:44;;;;;;;0.10;0.10;;;;;;;12.67;56.35;99164.47;8480811;28;20236;-74
2022/10/07 00:38:50;;;;;;;0.10;0.10;;;;;;;12.62;56.44;99163.78;8480429;28;20266;-74
2022/10/07 00:42:54;;;;;;;0.00;0.00;;;;;;;12.61;56.30;99164.66;8480415;28;20251;-74
2022/10/07 00:46:57;;;;;;;0.00;0.00;;;;;;;12.60;56.04;99157.75;8480218;28;20226;-74
2022/10/07 00:51:01;;;;;;;0.10;0.10;;;;;;;12.58;55.81;99148.34;8480295;28;20228;-74
2022/10/07 00:55:07;;;;;;;0.00;0.00;;;;;;;12.49;56.22;99149.50;8480217;28;20221;-74
2022/10/07 00:59:11;;;;;;;0.10;0.10;;;;;;;12.58;56.09;99137.94;8480146;28;20329;-74
2022/10/07 01:03:14;;;;;;;0.00;0.00;;;;;;;12.46;55.99;99139.19;8480330;28;20267;-75
2022/10/07 01:07:19;;;;;;;0.10;0.10;;;;;;;12.54;56.18;99134.59;8453061;22;20451;-85
2022/10/07 01:11:35;;;;;;;0.10;0.10;;;;;;;12.48;56.45;99116.63;8418010;28;20254;-85
2022/10/07 01:15:42;;;;;;;0.00;0.00;;;;;;;12.50;56.75;99118.25;8417859;28;20285;-84
2022/10/07 01:20:17;;;;;;;0.10;0.10;;;;;;;12.59;55.83;99118.84;8417790;28;20418;-85
2022/10/07 01:24:26;;;;;;;0.10;0.10;;;;;;;12.53;55.70;99117.31;8418221;28;20238;-85
2022/10/07 01:28:32;;;;;;;0.00;0.00;;;;;;;12.57;55.58;99111.13;8417490;28;20230;-85
2022/10/07 01:32:36;;;;;;;0.10;0.10;;;;;;;12.45;55.81;99104.59;8417570;28;20344;-85
2022/10/07 01:36:40;;;;;;;0.10;0.10;;;;;;;12.42;55.97;99096.88;8417378;28;20234;-85
2022/10/07 01:40:46;;;;;;;0.10;0.10;;;;;;;12.42;56.13;99094.28;8417333;28;20235;-85
2022/10/07 01:44:58;;;;;;;0.10;0.10;;;;;;;12.41;56.03;99095.19;8416980;28;20529;-85
2022/10/07 01:49:01;;;;;;;0.10;0.10;;;;;;;12.34;56.32;99080.72;8417226;28;20230;-85
2022/10/07 01:53:16;;;;;;;0.10;0.10;;;;;;;12.40;55.95;99077.06;8416432;28;20238;-85
2022/10/07 01:57:27;;;;;;;0.10;0.10;;;;;;;12.38;56.55;99077.13;8416425;28;20235;-85
2022/10/07 02:01:36;;;;;;;0.10;0.10;;;;;;;12.36;56.33;99068.53;8416423;28;20234;-85
2022/10/07 02:05:46;;;;;;;0.10;0.10;;;;;;;12.31;56.48;99065.22;8435217;28;20240;-85
2022/10/07 02:09:53;;;;;;;0.10;0.10;;;;;;;12.36;56.46;99062.50;8449982;28;20222;-85
2022/10/07 02:13:59;;;;;;;0.10;0.10;;;;;;;12.32;56.46;99062.59;8449684;28;20229;-85
2022/10/07 02:18:07;;;;;;;0.10;0.10;;;;;;;12.35;56.34;99050.38;8448997;28;20248;-85
2022/10/07 02:22:11;;;;;;;0.10;0.10;;;;;;;12.28;56.87;99049.72;8449408;28;20226;-86
2022/10/07 02:26:19;;;;;;;0.00;0.00;;;;;;;12.36;56.92;99052.09;8449556;28;20230;-85
2022/10/07 02:30:22;;;;;;;0.10;0.10;;;;;;;12.28;56.81;99041.94;8449204;28;20257;-85
2022/10/07 02:34:28;;;;;;;0.00;0.00;;;;;;;12.29;56.97;99041.91;8449294;28;20276;-85
2022/10/07 02:38:31;;;;;;;0.10;0.10;;;;;;;12.30;57.36;99042.78;8448339;28;20253;-85
2022/10/07 02:42:38;;;;;;;0.10;0.10;;;;;;;12.29;56.50;99030.66;8449037;28;20238;-85
2022/10/07 02:46:45;;;;;;;0.00;0.00;;;;;;;12.27;56.61;99025.53;8448641;28;20230;-85
2022/10/07 02:50:51;;;;;;;0.10;0.10;;;;;;;12.37;56.08;99026.06;8448915;28;20234;-85
2022/10/07 02:54:58;;;;;;;0.10;0.10;;;;;;;12.15;56.33;99028.56;8448862;28;20432;-85
2022/10/07 02:59:02;;;;;;;0.10;0.10;;;;;;;12.05;57.19;99029.75;8448331;28;20229;-85
2022/10/07 03:03:05;;;;;;;0.10;0.10;;;;;;;12.15;56.49;99025.09;8448392;28;20245;-85
2022/10/07 03:07:11;;;;;;;0.10;0.10;;;;;;;12.16;56.65;99030.22;8447951;28;20233;-85
2022/10/07 03:11:13;;;;;;;0.10;0.10;;;;;;;12.14;56.83;99034.63;8448263;28;20272;-85
2022/10/07 03:15:16;;;;;;;0.10;0.10;;;;;;;12.07;57.09;99027.94;8448119;28;20233;-86
2022/10/07 03:19:19;;;;;;;0.00;0.00;;;;;;;12.04;57.23;99026.31;8447592;28;20254;-85
2022/10/07 03:23:27;;;;;;;0.00;0.00;;;;;;;12.10;56.74;99028.69;8447801;28;20230;-86
2022/10/07 03:27:30;;;;;;;0.10;0.10;;;;;;;12.00;56.99;99019.53;8446459;28;20283;-85
2022/10/07 03:31:33;;;;;;;0.10;0.10;;;;;;;11.98;57.12;99021.31;8447371;28;20238;-85
2022/10/07 03:35:36;;;;;;;0.10;0.10;;;;;;;12.02;57.02;99009.94;8447017;28;20226;-86
2022/10/07 03:39:40;;;;;;;0.10;0.10;;;;;;;12.10;57.13;99014.88;8446531;28;20279;-86
2022/10/07 03:43:43;;;;;;;0.10;0.10;;;;;;;12.02;56.62;99009.09;8447642;28;20226;-86
2022/10/07 03:47:46;;;;;;;0.10;0.10;;;;;;;11.98;57.33;99000.56;8447005;28;20245;-86
2022/10/07 03:51:49;;;;;;;0.10;0.10;;;;;;;12.06;57.58;99000.28;8446680;28;20226;-86
2022/10/07 03:55:53;;;;;;;0.10;0.10;;;;;;;12.13;57.11;98997.44;8446889;28;20229;-86
2022/10/07 03:59:55;;;;;;;0.10;0.10;;;;;;;11.91;56.99;98994.72;8446483;28;20380;-86
2022/10/07 04:03:59;;;;;;;0.10;0.10;;;;;;;12.03;57.29;98995.19;8446564;28;20389;-86
2022/10/07 04:08:03;;;;;;;0.10;0.10;;;;;;;12.00;56.77;98988.38;8446449;28;20295;-86
2022/10/07 04:12:07;;;;;;;0.10;0.10;;;;;;;11.77;57.16;98973.53;8446181;28;20228;-86
2022/10/07 04:16:11;;;;;;;0.10;0.10;;;;;;;12.05;57.30;98985.59;8446416;28;20295;-86
2022/10/07 04:20:16;;;;;;;0.10;0.10;;;;;;;11.88;57.47;98961.06;8445840;28;20399;-86
2022/10/07 04:24:19;;;;;;;0.10;0.10;;;;;;;11.79;57.83;98961.34;8445751;28;20226;-86
2022/10/07 04:28:25;;;;;;;0.10;0.10;;;;;;;12.06;57.86;98963.94;8446975;28;20226;-86
2022/10/07 04:32:28;;;;;;;0.10;0.10;;;;;;;12.07;57.69;98958.72;8445324;28;20240;-85
2022/10/07 04:36:30;;;;;;;0.10;0.10;;;;;;;11.99;58.46;98947.72;8446268;28;20541;-85
2022/10/07 04:40:33;;;;;;;0.10;0.10;;;;;;;12.25;58.07;98957.19;8450259;28;20233;-86
2022/10/07 04:44:37;;;;;;;0.10;0.10;;;;;;;12.16;58.15;98949.72;8452888;28;20242;-85
2022/10/07 04:48:44;;;;;;;0.10;0.10;;;;;;;12.23;57.93;98945.19;8452659;28;20233;-85
2022/10/07 04:52:47;;;;;;;0.10;0.10;;;;;;;12.01;58.04;98937.28;8452305;28;20226;-81
2022/10/07 04:56:50;;;;;;;0.10;0.10;;;;;;;12.14;58.32;98943.75;8452208;28;20535;-87
2022/10/07 05:00:55;;;;;;;0.10;0.10;;;;;;;12.15;58.69;98934.19;8452044;28;20233;-84
2022/10/07 05:04:58;;;;;;;0.00;0.00;;;;;;;12.19;58.59;98928.88;8451578;28;20249;-84
2022/10/07 05:09:01;;;;;;;0.10;0.10;;;;;;;12.20;58.66;98927.94;8451651;28;20228;-84
2022/10/07 05:13:04;;;;;;;0.07;0.07;;;;;;;12.24;58.95;98926.97;8451375;28;20225;-84
2022/10/07 05:17:08;;;;;;;0.10;0.10;;;;;;;12.28;57.83;98925.06;8451452;28;20226;-85
2022/10/07 05:21:11;;;;;;;0.10;0.10;;;;;;;12.16;58.98;98931.56;8451231;28;20230;-86
2022/10/07 05:25:14;;;;;;;0.10;0.10;;;;;;;12.28;58.40;98920.75;8451119;28;20225;-85
2022/10/07 05:29:17;;;;;;;0.10;0.10;;;;;;;12.33;58.95;98929.19;8451337;28;20252;-86
2022/10/07 05:33:21;;;;;;;0.10;0.10;;;;;;;12.39;59.15;98919.50;8450851;28;20525;-86
2022/10/07 05:37:24;;;;;;;0.10;0.10;;;;;;;12.46;58.94;98915.78;8450865;28;20226;-92
2022/10/07 05:41:27;;;;;;;0.10;0.10;;;;;;;12.42;58.95;98909.00;8450034;28;20245;-85
2022/10/07 05:45:31;;;;;;;0.10;0.10;;;;;;;12.39;58.46;98916.91;8450374;28;20238;-85
2022/10/07 05:49:35;;;;;;;0.10;0.10;;;;;;;12.48;58.45;98906.19;8449865;28;20241;-85
2022/10/07 05:53:40;;;;;;;0.10;0.10;;;;;;;12.44;58.23;98909.78;8449149;28;20494;-85
2022/10/07 05:57:42;;;;;;;0.10;0.10;;;;;;;12.41;58.45;98910.72;8449667;28;20238;-85
2022/10/07 06:01:46;;;;;;;0.10;0.10;;;;;;;12.55;57.72;98910.25;8449239;28;20249;-85
2022/10/07 06:05:50;;;;;;;0.00;0.00;;;;;;;12.63;58.29;98913.41;8449280;28;20241;-84
2022/10/07 06:14:14;;;;;;;0.10;0.10;;;;;;;12.75;58.55;98899.09;8450022;28;20231;-84
2022/10/07 06:18:17;;;;;;;0.03;0.03;;;;;;;12.61;58.94;98898.78;8450307;28;20242;-85
2022/10/07 06:22:21;;;;;;;0.10;0.10;;;;;;;12.75;58.70;98890.44;8449977;28;20291;-85
2022/10/07 06:26:24;;;;;;;0.10;0.10;;;;;;;12.59;59.52;98887.59;8449799;28;20237;-85
2022/10/07 06:30:28;;;;;;;0.10;0.10;;;;;;;12.74;59.48;98904.34;8449275;28;20226;-84
2022/10/07 06:34:30;;;;;;;0.10;0.10;;;;;;;12.79;59.00;98887.66;8449930;28;20435;-85
2022/10/07 06:38:35;;;;;;;0.00;0.00;;;;;;;12.76;59.01;98889.56;8449910;28;20428;-83
2022/10/07 06:42:38;;;;;;;0.10;0.10;;;;;;;12.86;58.99;98891.72;8449653;28;20428;-85
2022/10/07 06:46:40;;;;;;;0.10;0.10;;;;;;;12.87;59.29;98898.63;8449213;28;20234;-85
2022/10/07 06:50:50;;;;;;;0.10;0.10;;;;;;;12.92;58.79;98901.03;8449330;28;20230;-85
2022/10/07 06:54:54;;;;;;;0.10;0.10;;;;;;;12.98;58.86;98900.78;8449172;28;20233;-85
2022/10/07 06:58:57;;;;;;;0.10;0.10;;;;;;;13.01;59.07;98885.06;8449272;28;20230;-85
2022/10/07 07:03:00;;;;;;;0.03;0.03;;;;;;;13.00;59.07;98891.16;8448783;28;20256;-85
2022/10/07 07:07:04;;;;;;;0.10;0.10;;;;;;;13.24;58.94;98893.72;8448564;28;20229;-85
2022/10/07 07:15:26;;;;;;;0.10;0.10;;;;;;;13.19;58.85;98880.88;8447569;28;20226;-85
2022/10/07 07:19:29;;;;;;;0.10;0.10;;;;;;;13.20;58.84;98874.78;8448488;28;20230;-85
2022/10/07 07:23:32;;;;;;;0.10;0.10;;;;;;;13.25;58.81;98877.19;8448312;28;20275;-85
2022/10/07 07:27:36;;;;;;;0.10;0.10;;;;;;;13.31;58.74;98887.41;8448063;28;20283;-85
2022/10/07 07:31:39;;;;;;;0.10;0.10;;;;;;;13.35;58.95;98877.72;8448194;28;20267;-88
2022/10/07 07:35:43;;;;;;;0.07;0.07;;;;;;;13.37;58.98;98886.31;8448045;28;20230;-86
2022/10/07 07:39:46;;;;;;;0.07;0.07;;;;;;;13.26;58.76;98892.75;8447982;28;20517;-86
2022/10/07 07:43:52;;;;;;;0.10;0.10;;;;;;;13.20;58.39;98879.97;8448206;28;20455;-83
2022/10/07 07:47:56;;;;;;;0.10;0.10;;;;;;;13.33;58.49;98885.56;8447759;28;20279;-86
2022/10/07 07:51:58;;;;;;;0.10;0.10;;;;;;;13.53;58.22;98884.72;8447769;28;20233;-85
2022/10/07 07:56:02;;;;;;;0.10;0.10;;;;;;;13.30;58.61;98883.09;8447719;28;20226;-85
2022/10/07 08:00:07;;;;;;;0.07;0.07;;;;;;;13.45;58.67;98887.66;8447415;28;20519;-86
2022/10/07 08:04:10;;;;;;;0.10;0.10;;;;;;;13.47;58.50;98885.00;8446939;28;20240;-85
2022/10/07 08:08:13;;;;;;;0.10;0.10;;;;;;;13.51;58.65;98878.75;8447213;28;20257;-86
2022/10/07 08:12:16;;;;;;;0.10;0.10;;;;;;;13.49;58.58;98873.59;8447148;28;20233;-86
2022/10/07 08:16:22;;;;;;;0.00;0.00;;;;;;;13.63;57.96;98874.78;8446939;28;20241;-85
2022/10/07 08:20:25;;;;;;;0.10;0.10;;;;;;;13.77;58.61;98863.81;8447272;28;20283;-85
2022/10/07 08:24:28;;;;;;;0.10;0.10;;;;;;;13.33;59.25;98869.09;8446910;28;20230;-85
2022/10/07 08:28:32;;;;;;;0.10;0.10;;;;;;;13.59;58.57;98861.03;8446907;28;20229;-85
2022/10/07 08:32:36;;;;;;;0.10;0.10;;;;;;;13.73;58.15;98860.47;8447033;28;20230;-85
2022/10/07 08:36:39;;;;;;;0.10;0.10;;;;;;;13.87;58.37;98862.47;8446735;28;20229;-84
2022/10/07 08:40:46;;;;;;;0.07;0.07;;;;;;;13.79;58.33;98868.03;8446780;28;20254;-85
2022/10/07 08:44:50;;;;;;;0.10;0.10;;;;;;;13.86;58.03;98860.81;8446655;28;20237;-85
2022/10/07 08:48:57;;;;;;;0.00;0.00;;;;;;;13.99;57.85;98864.56;8447464;28;20234;-79
2022/10/07 08:53:01;;;;;;;0.00;0.00;;;;;;;15.64;71.79;98854.19;8446077;28;20230;-79
2022/10/07 08:57:10;;;;;;;0.00;0.00;;;;;;;16.31;63.06;98854.22;8445648;28;20237;-78
2022/10/07 09:01:22;;;;;;;0.00;0.00;;;;;;;16.00;56.06;98851.47;8445771;28;20230;-84
2022/10/07 09:05:32;;;;;;;0.10;0.10;;;;;;;15.58;56.21;98842.28;8445774;28;20250;-85
2022/10/07 09:09:39;;;;;;;0.00;0.00;;;;;;;15.15;55.87;98844.44;8445304;28;20231;-78
2022/10/07 09:13:45;;;;;;;0.00;0.00;;;;;;;15.05;56.49;98840.59;8457143;22;20234;-74
2022/10/07 09:17:52;;;;;;;0.10;0.10;;;;;;;15.01;60.68;98837.28;8411587;28;20231;-75
2022/10/07 09:22:01;;;;;;;0.10;0.10;;;;;;;14.71;56.91;98836.16;8412063;28;20407;-75
2022/10/07 09:26:09;;;;;;;0.10;0.10;;;;;;;14.89;57.04;98822.25;8414107;28;20364;-75
2022/10/07 09:30:13;;;;;;;0.10;0.10;;;;;;;14.78;57.42;98821.91;8418240;28;20231;-75
2022/10/07 09:34:21;;;;;;;0.10;0.10;;;;;;;14.34;58.05;98819.59;8419290;28;20300;-74
2022/10/07 09:38:32;;;;;;;0.00;0.00;;;;;;;14.55;57.31;98822.97;8419682;28;20541;-76
2022/10/07 09:42:41;;;;;;;0.10;0.10;;;;;;;14.91;56.70;98823.00;8420733;28;20246;-78
2022/10/07 09:46:46;;;;;;;0.10;0.10;;;;;;;15.20;56.46;98815.53;8420788;28;20231;-77
2022/10/07 09:50:49;;;;;;;0.00;0.00;;;;;;;14.89;56.55;98810.94;8418723;28;20236;-78
2022/10/07 09:54:55;;;;;;;0.10;0.10;;;;;;;15.06;56.25;98811.00;8418044;28;20272;-78
2022/10/07 09:59:16;;;;;;;0.07;0.07;;;;;;;15.35;57.77;98806.09;8417628;28;20325;-78
2022/10/07 10:03:19;;;;;;;0.00;0.00;;;;;;;15.52;56.99;98813.91;8417862;28;20250;-77
2022/10/07 10:07:26;;;;;;;0.03;0.03;;;;;;;15.68;56.66;98806.09;8418528;28;20270;-78
2022/10/07 10:11:30;;;;;;;0.10;0.10;;;;;;;15.85;56.56;98807.88;8417231;28;20448;-78
2022/10/07 10:15:42;;;;;;;0.00;0.00;;;;;;;15.91;55.73;98807.53;8417758;28;20231;-79
2022/10/07 10:19:45;;;;;;;0.00;0.00;;;;;;;15.85;56.13;98797.44;8417423;28;20291;-78
2022/10/07 10:23:49;;;;;;;0.00;0.00;;;;;;;16.09;56.28;98797.91;8417266;28;20238;-78
2022/10/07 10:27:57;;;;;;;0.10;0.10;;;;;;;16.23;55.94;98797.16;8417501;28;20399;-78
2022/10/07 10:32:37;;;;;;;0.00;0.00;;;;;;;16.22;55.47;98796.31;8416881;28;20242;-78
2022/10/07 10:36:42;;;;;;;0.10;0.10;;;;;;;16.49;55.06;98787.88;8416822;28;20230;-79
2022/10/07 10:40:51;;;;;;;0.10;0.10;;;;;;;16.69;54.45;98780.69;8417382;28;20269;-78
2022/10/07 10:45:06;;;;;;;0.03;0.03;;;;;;;16.89;54.43;98777.81;8415869;28;20227;-79
2022/10/07 10:49:19;;;;;;;0.07;0.07;;;;;;;16.85;52.55;98759.75;8417155;28;20239;-79
2022/10/07 10:53:33;;;;;;;0.10;0.10;;;;;;;17.24;53.03;98758.38;8416034;28;20257;-76
2022/10/07 10:57:42;;;;;;;0.10;0.10;;;;;;;17.14;52.43;98758.09;8414925;28;20242;-78
2022/10/07 11:01:51;;;;;;;0.00;0.00;;;;;;;17.17;53.97;98752.66;8414853;28;20453;-78
2022/10/07 11:05:55;;;;;;;0.00;0.00;;;;;;;17.56;53.57;98735.50;8415623;28;20294;-76
2022/10/07 11:10:01;;;;;;;0.00;0.00;;;;;;;17.62;50.78;98737.75;8414243;28;20230;-76
2022/10/07 11:14:06;;;;;;;0.00;0.00;;;;;;;18.07;51.04;98738.50;8414086;28;20326;-74
2022/10/07 11:18:16;;;;;;;0.00;0.00;;;;;;;18.64;50.16;98737.50;8414004;28;20226;-77
2022/10/07 11:22:28;;;;;;;0.00;0.00;;;;;;;18.32;49.33;98727.31;8414007;28;20284;-76
2022/10/07 11:26:34;;;;;;;0.00;0.00;;;;;;;18.14;49.91;98721.47;8413353;28;20450;-76
2022/10/07 11:30:44;;;;;;;0.00;0.00;;;;;;;17.83;50.80;98709.41;8414032;28;20252;-76
2022/10/07 11:34:52;;;;;;;0.00;0.00;;;;;;;18.31;50.29;98703.78;8413207;28;20238;-76
2022/10/07 11:38:56;;;;;;;0.00;0.00;;;;;;;18.79;50.39;98698.94;8413697;28;20540;-77
2022/10/07 11:43:04;;;;;;;0.00;0.00;;;;;;;19.04;48.04;98690.28;8413652;28;20237;-77
2022/10/07 11:47:10;;;;;;;0.10;0.10;;;;;;;19.29;48.24;98685.97;8414323;28;20231;-77
2022/10/07 11:51:21;;;;;;;0.00;0.00;;;;;;;19.62;47.87;98682.78;8413969;28;20226;-76
2022/10/07 11:55:27;;;;;;;0.00;0.00;;;;;;;19.89;47.64;98669.50;8413516;28;20241;-77
2022/10/07 11:59:42;;;;;;;0.00;0.00;;;;;;;19.93;47.58;98662.22;8413158;28;20553;-77
2022/10/07 12:03:47;;;;;;;0.00;0.00;;;;;;;19.93;47.46;98662.22;8413340;28;20244;-78
2022/10/07 12:07:59;;;;;;;0.00;0.00;;;;;;;19.71;47.12;98655.03;8413354;28;20238;-77
2022/10/07 12:12:03;;;;;;;0.00;0.00;;;;;;;20.17;47.20;98632.50;8413432;28;20239;-77
2022/10/07 12:16:41;;;;;;;0.00;0.00;;;;;;;20.50;46.25;98631.78;8413219;28;20272;-75
2022/10/07 12:20:47;;;;;;;0.00;0.00;;;;;;;20.48;47.12;98624.00;8413876;28;20237;-76
2022/10/07 12:25:23;;;;;;;0.00;0.00;;;;;;;20.59;45.86;98609.22;8413729;28;20240;-76
2022/10/07 12:29:34;;;;;;;0.10;0.10;;;;;;;20.08;47.81;98602.47;8413112;28;20232;-77
2022/10/07 12:33:41;;;;;;;0.00;0.00;;;;;;;19.95;47.76;98605.13;8413399;28;20232;-77
2022/10/07 12:37:48;;;;;;;0.00;0.00;;;;;;;19.91;47.31;98599.28;8413500;28;20310;-77
2022/10/07 12:41:51;;;;;;;0.00;0.00;;;;;;;19.80;48.91;98593.97;8413385;28;20232;-77
2022/10/07 12:45:56;;;;;;;0.00;0.00;;;;;;;19.53;48.18;98588.84;8413770;28;20233;-77
2022/10/07 12:50:02;;;;;;;0.00;0.00;;;;;;;19.62;49.62;98582.94;8413208;28;20535;-77
2022/10/07 12:54:06;;;;;;;0.00;0.00;;;;;;;19.68;49.93;98574.63;8413142;28;20233;-77
2022/10/07 13:03:16;;;;;;;0.00;0.00;;;;;;;19.53;48.72;98565.22;8418518;28;20251;-75
2022/10/07 13:07:59;;;;;;;0.00;0.00;;;;;;;19.53;49.78;98557.34;8419221;28;20239;-75
2022/10/07 13:12:26;;;;;;;0.00;0.00;;;;;;;19.22;49.28;98548.19;8344860;28;20566;-75
2022/10/07 13:16:37;;;;;;;0.00;0.00;;;;;;;19.44;50.04;98550.09;8418274;28;20237;-74
2022/10/07 13:21:10;;;;;;;0.00;0.00;;;;;;;19.65;49.53;98543.31;8418952;28;20252;-74
2022/10/07 13:25:14;;;;;;;0.00;0.00;;;;;;;19.64;49.88;98533.75;8418706;28;20245;-76
2022/10/07 13:29:22;;;;;;;0.00;0.00;;;;;;;19.95;49.11;98523.66;8418738;28;20458;-76
2022/10/07 13:33:27;;;;;;;0.00;0.00;;;;;;;20.63;48.37;98516.78;8418304;28;20240;-76
2022/10/07 13:37:33;;;;;;;0.00;0.00;;;;;;;20.58;47.81;98518.06;8417583;28;20229;-75
2022/10/07 13:41:37;;;;;;;0.00;0.00;;;;;;;20.87;48.56;98506.19;8418123;28;20552;-75
2022/10/07 13:45:43;;;;;;;0.00;0.00;;;;;;;20.34;48.86;98499.75;8418322;28;20233;-76
2022/10/07 13:49:48;;;;;;;0.00;0.00;;;;;;;21.00;48.06;98494.66;8418493;28;20229;-77
2022/10/07 13:53:54;;;;;;;0.00;0.00;;;;;;;21.34;47.33;98495.44;8418055;28;20418;-76
2022/10/07 13:58:00;;;;;;;0.00;0.00;;;;;;;21.40;46.39;98483.59;8418409;28;20229;-75
2022/10/07 14:02:04;;;;;;;0.00;0.00;;;;;;;21.23;46.39;98483.16;8417887;28;20283;-77
2022/10/07 14:06:08;;;;;;;0.00;0.00;;;;;;;21.40;46.19;98476.53;8417761;28;20314;-77
2022/10/07 14:10:13;;;;;;;0.00;0.00;;;;;;;21.46;46.05;98467.34;8417468;28;20264;-76
2022/10/07 14:14:20;;;;;;;0.00;0.00;;;;;;;21.35;46.29;98462.06;8416797;28;20526;-77
2022/10/07 14:18:23;;;;;;;0.00;0.00;;;;;;;21.13;46.59;98462.94;8417144;28;20226;-76
2022/10/07 14:22:30;;;;;;;0.00;0.00;;;;;;;21.02;46.60;98459.38;8416767;28;20336;-76
2022/10/07 14:26:43;;;;;;;0.00;0.00;;;;;;;21.22;46.29;98457.78;8416984;28;20276;-77
2022/10/07 14:35:21;;;;;;;0.00;0.00;;;;;;;20.99;45.51;98445.63;8417051;28;20228;-77
2022/10/07 14:39:32;;;;;;;0.00;0.00;;;;;;;21.00;46.49;98442.88;8416466;28;20242;-77
2022/10/07 14:43:37;;;;;;;0.00;0.00;;;;;;;21.14;46.10;98431.22;8416215;28;20234;-76
2022/10/07 14:47:43;;;;;;;0.00;0.00;;;;;;;21.02;46.11;98419.06;8416209;28;20241;-77
2022/10/07 14:51:46;;;;;;;0.00;0.00;;;;;;;20.76;46.75;98419.31;8415982;28;20234;-76
2022/10/07 14:55:48;;;;;;;0.00;0.00;;;;;;;20.77;46.94;98412.25;8415609;28;20237;-77
2022/10/07 14:59:53;;;;;;;0.00;0.00;;;;;;;20.68;47.28;98412.03;8415916;28;20234;-76
2022/10/07 15:03:55;;;;;;;0.00;0.00;;;;;;;20.57;47.71;98398.84;8415808;28;20400;-77
2022/10/07 15:07:59;;;;;;;0.00;0.00;;;;;;;20.57;48.03;98401.47;8415658;28;20233;-77
2022/10/07 15:12:01;;;;;;;0.00;0.00;;;;;;;20.58;47.85;98394.41;8415655;28;20231;-75
2022/10/07 15:16:09;;;;;;;0.00;0.00;;;;;;;20.42;48.67;98390.34;8415594;28;20231;-77
2022/10/07 15:20:14;;;;;;;0.00;0.00;;;;;;;19.95;50.02;98383.50;8415330;28;20229;-76
2022/10/07 15:24:18;;;;;;;0.00;0.00;;;;;;;19.96;50.63;98380.78;8414449;28;20240;-76
2022/10/07 15:28:20;;;;;;;0.00;0.00;;;;;;;19.82;50.68;98370.47;8414894;28;20228;-76
2022/10/07 15:32:28;;;;;;;0.00;0.00;;;;;;;19.73;50.94;98364.13;8414515;28;20401;-76
2022/10/07 15:36:31;;;;;;;0.00;0.00;;;;;;;19.61;51.31;98359.75;8414222;28;20236;-76
2022/10/07 15:40:34;;;;;;;0.00;0.00;;;;;;;19.43;52.14;98359.34;8414429;28;20230;-76
2022/10/07 15:44:36;;;;;;;0.00;0.00;;;;;;;19.29;52.73;98363.00;8414204;28;20510;-76
2022/10/07 15:48:41;;;;;;;0.00;0.00;;;;;;;19.20;53.22;98367.13;8414531;28;20233;-76
2022/10/07 15:52:43;;;;;;;0.00;0.00;;;;;;;19.11;53.84;98357.31;8414125;28;20235;-76
2022/10/07 15:56:48;;;;;;;0.00;0.00;;;;;;;19.08;54.25;98347.88;8414257;28;20228;-76
2022/10/07 16:00:59;;;;;;;0.00;0.00;;;;;;;19.02;54.32;98344.84;8414446;28;20238;-76
2022/10/07 16:05:04;;;;;;;0.00;0.00;;;;;;;18.92;54.90;98342.91;8414076;28;20227;-76
2022/10/07 16:09:07;;;;;;;0.00;0.00;;;;;;;18.87;55.89;98341.56;8413678;28;20526;-76
2022/10/07 16:13:09;;;;;;;0.00;0.00;;;;;;;18.74;56.27;98336.34;8413521;28;20235;-77
2022/10/07 16:17:13;;;;;;;0.00;0.00;;;;;;;18.66;57.04;98329.03;8413474;28;20223;-77
2022/10/07 16:21:20;;;;;;;0.00;0.00;;;;;;;18.56;57.91;98335.84;8413457;28;20286;-77
2022/10/07 16:25:23;;;;;;;0.00;0.00;;;;;;;18.50;58.24;98331.88;8413274;28;20325;-77
2022/10/07 16:33:50;;;;;;;0.00;0.00;;;;;;;18.36;59.03;98324.16;8413577;28;20242;-80
2022/10/07 16:37:55;;;;;;;0.00;0.00;;;;;;;18.25;59.49;98324.91;8420529;28;20254;-78
2022/10/07 16:41:58;;;;;;;0.00;0.00;;;;;;;18.19;59.59;98327.97;8420707;28;20521;-78
2022/10/07 16:46:02;;;;;;;0.00;0.00;;;;;;;18.10;60.01;98318.94;8420674;28;20268;-74
2022/10/07 16:50:06;;;;;;;0.00;0.00;;;;;;;18.04;60.29;98332.47;8419922;28;20237;-77
2022/10/07 16:54:16;;;;;;;0.00;0.00;;;;;;;17.95;60.98;98326.13;8419783;28;20237;-76
2022/10/07 16:58:19;;;;;;;0.00;0.00;;;;;;;17.86;60.96;98329.38;8419511;28;20231;-76
2022/10/07 17:02:21;;;;;;;0.00;0.00;;;;;;;17.77;61.08;98328.16;8419166;28;20261;-76
2022/10/07 17:06:25;;;;;;;0.00;0.00;;;;;;;17.70;61.83;98341.78;8418761;28;20249;-76
2022/10/07 17:10:30;;;;;;;0.00;0.00;;;;;;;17.66;61.94;98346.38;8418606;28;20234;-75
2022/10/07 17:14:32;;;;;;;0.00;0.00;;;;;;;17.56;62.35;98342.72;8419087;28;20230;-76
2022/10/07 17:18:35;;;;;;;0.00;0.00;;;;;;;17.50;62.25;98349.19;8419204;28;20235;-75
2022/10/07 17:22:38;;;;;;;0.00;0.00;;;;;;;17.42;62.79;98343.66;8418842;28;20242;-75
2022/10/07 17:26:43;;;;;;;0.00;0.00;;;;;;;17.36;62.72;98341.41;8418577;28;20231;-76
2022/10/07 17:30:46;;;;;;;0.00;0.00;;;;;;;17.28;63.33;98341.91;8418575;28;20253;-76
2022/10/07 17:34:49;;;;;;;0.00;0.00;;;;;;;17.31;63.36;98340.91;8418873;28;20523;-73
2022/10/07 17:38:52;;;;;;;0.00;0.00;;;;;;;17.27;63.28;98331.53;8418363;28;20230;-75
2022/10/07 17:42:56;;;;;;;0.00;0.00;;;;;;;17.24;63.34;98334.38;8418427;28;20230;-75
2022/10/07 17:47:02;;;;;;;0.00;0.00;;;;;;;17.17;63.86;98340.03;8417075;28;20245;-76
2022/10/07 17:51:06;;;;;;;0.00;0.00;;;;;;;17.22;63.83;98339.72;8418142;28;20571;-75
2022/10/07 17:55:09;;;;;;;0.00;0.00;;;;;;;17.17;63.80;98332.19;8417996;28;20238;-79
2022/10/07 17:59:13;;;;;;;0.00;0.00;;;;;;;17.13;63.87;98341.13;8418027;28;20253;-78
2022/10/07 18:03:16;;;;;;;0.00;0.00;;;;;;;17.07;64.06;98338.09;8417832;28;20250;-74
2022/10/07 18:07:19;;;;;;;0.00;0.00;;;;;;;17.07;64.37;98330.25;8417703;28;20235;-74
2022/10/07 18:15:18;;;;;;;0.00;0.00;;;;;;;17.08;64.61;98326.72;8416428;28;20276;-80
2022/10/07 18:15:55;;;;;;;0.00;0.00;;;;;;;17.04;64.46;98320.84;8418173;28;20233;-82
2022/10/07 18:19:59;;;;;;;0.00;0.00;;;;;;;17.06;64.46;98320.72;8417199;28;20238;-78
2022/10/07 18:24:07;;;;;;;0.10;0.10;;;;;;;16.93;64.84;98318.91;8416598;28;20230;-79
2022/10/07 18:28:09;;;;;;;0.00;0.00;;;;;;;16.95;64.73;98330.09;8417404;28;20233;-81
2022/10/07 18:32:13;;;;;;;0.00;0.00;;;;;;;16.98;64.91;98327.31;8417137;28;20530;-78
2022/10/07 18:36:18;;;;;;;0.00;0.00;;;;;;;16.95;64.82;98319.63;8416839;28;20226;-78
2022/10/07 18:40:22;;;;;;;0.00;0.00;;;;;;;16.93;64.77;98315.47;8417141;28;20300;-78
2022/10/07 18:44:25;;;;;;;0.03;0.03;;;;;;;16.90;64.92;98315.63;8417274;28;20239;-79
2022/10/07 18:48:33;;;;;;;0.00;0.00;;;;;;;16.81;65.16;98320.50;8416821;28;20237;-81
2022/10/07 18:52:36;;;;;;;0.00;0.00;;;;;;;16.76;65.52;98314.72;8417127;28;20234;-83
2022/10/07 18:56:38;;;;;;;0.00;0.00;;;;;;;17.54;69.25;98316.63;8417490;28;20249;-77
2022/10/07 19:00:43;;;;;;;0.00;0.00;;;;;;;17.74;67.40;98310.06;8416405;28;20250;-78
2022/10/07 19:04:48;;;;;;;0.00;0.00;;;;;;;17.29;64.04;98312.19;8416645;28;20230;-78
2022/10/07 19:08:52;;;;;;;0.00;0.00;;;;;;;17.03;64.51;98313.06;8415741;28;20234;-79
2022/10/07 19:17:23;;;;;;;0.00;0.00;;;;;;;16.76;64.54;98301.66;8414641;28;20238;-79
2022/10/07 19:21:28;;;;;;;0.00;0.00;;;;;;;16.68;64.60;98301.31;8414926;28;20239;-79
2022/10/07 19:25:46;;;;;;;0.00;0.00;;;;;;;16.67;64.74;98297.00;8414591;28;20564;-79
2022/10/07 19:29:50;;;;;;;0.00;0.00;;;;;;;16.57;64.66;98306.38;8415018;28;20527;-80
2022/10/07 19:33:56;;;;;;;0.00;0.00;;;;;;;16.53;65.00;98302.28;8414745;28;20230;-79
2022/10/07 19:38:02;;;;;;;0.00;0.00;;;;;;;16.53;64.73;98302.28;8415021;28;20226;-80
2022/10/07 19:42:05;;;;;;;0.00;0.00;;;;;;;16.49;64.74;98309.47;8414874;28;20433;-79
2022/10/07 19:46:09;;;;;;;0.00;0.00;;;;;;;16.45;65.19;98307.13;8414584;28;20231;-80